Time;durP1;ratioP1;P1;durP2;ratioP2;P2;SDS_P1;SDS_P2;PMS_P1;PMS_P2;Temp;Humidity;BMP_temperature;BMP_pressure;BME280_temperature;BME280_humidity;BME280_pressure;Samples;Min_cycle;Max_cycle;Signal;HPM_P1;HPM_P2
2022/10/16 00:02:12;;;;;;;13.20;9.90;;;;;;;13.80;74.39;98713.86;422249;1296;108373;-41
2022/10/16 00:12:19;;;;;;;14.40;10.30;;;;;;;13.83;74.58;98716.39;421110;1298;97032;-41
2022/10/16 00:22:27;;;;;;;11.40;9.50;;;;;;;13.80;74.64;98718.38;421026;1296;106975;-41
2022/10/16 00:32:33;;;;;;;15.80;12.70;;;;;;;13.66;74.72;98714.38;421154;1296;97635;-40
2022/10/16 00:42:40;;;;;;;15.80;12.80;;;;;;;13.40;74.92;98712.39;421005;1297;97797;-41
2022/10/16 00:52:50;;;;;;;14.40;12.10;;;;;;;13.18;75.18;98726.31;421165;1292;109477;-41
2022/10/16 01:03:00;;;;;;;15.90;11.50;;;;;;;13.09;75.53;98730.73;422091;1259;107838;-42
2022/10/16 01:13:12;;;;;;;18.00;10.60;;;;;;;13.11;75.85;98729.33;422797;1287;97860;-40
2022/10/16 01:23:29;;;;;;;14.60;11.10;;;;;;;13.21;76.02;98735.48;422796;1295;106856;-41
2022/10/16 01:33:41;;;;;;;13.30;9.80;;;;;;;13.27;76.26;98730.40;422935;1286;97526;-41
2022/10/16 01:43:46;;;;;;;13.20;10.60;;;;;;;13.25;76.24;98731.58;423181;1291;111720;-41
2022/10/16 01:53:57;;;;;;;16.60;10.50;;;;;;;13.14;76.38;98732.13;422737;1291;107357;-41
2022/10/16 02:04:11;;;;;;;16.40;12.30;;;;;;;13.02;76.49;98733.34;423124;1288;97873;-41
2022/10/16 02:14:18;;;;;;;19.00;11.70;;;;;;;12.87;76.59;98736.67;422670;1295;107703;-41
2022/10/16 02:24:29;;;;;;;19.30;13.10;;;;;;;12.74;76.75;98737.88;422668;1293;97873;-41
2022/10/16 02:34:37;;;;;;;19.40;13.10;;;;;;;12.72;77.03;98743.04;422866;1293;110656;-41
2022/10/16 02:44:45;;;;;;;18.10;11.60;;;;;;;12.82;77.30;98747.63;422903;1285;107563;-41
2022/10/16 02:54:51;;;;;;;15.20;10.50;;;;;;;13.02;77.50;98753.30;422729;1295;97751;-41
2022/10/16 03:04:59;;;;;;;15.00;12.20;;;;;;;13.15;77.60;98764.64;423090;1285;107153;-41
2022/10/16 03:15:06;;;;;;;18.00;13.10;;;;;;;13.15;77.57;98765.71;422940;1287;97807;-41
2022/10/16 03:25:13;;;;;;;19.50;12.40;;;;;;;13.13;77.53;98764.88;422580;1295;110993;-41
2022/10/16 03:35:21;;;;;;;20.80;11.80;;;;;;;13.16;77.62;98775.82;422809;1295;108310;-41
2022/10/16 03:45:28;;;;;;;14.40;11.00;;;;;;;13.24;77.71;98782.48;422654;1291;97893;-41
2022/10/16 03:55:35;;;;;;;17.40;11.50;;;;;;;13.30;77.70;98789.65;423094;1295;107339;-40
2022/10/16 04:05:42;;;;;;;17.20;11.70;;;;;;;13.35;77.86;98796.57;422948;1291;97972;-40
2022/10/16 04:15:50;;;;;;;16.10;13.20;;;;;;;13.35;77.79;98797.75;422932;1295;110880;-40
2022/10/16 04:25:57;;;;;;;21.20;14.40;;;;;;;13.29;77.90;98792.77;422739;1292;107616;-40
2022/10/16 04:36:05;;;;;;;18.10;13.10;;;;;;;13.28;77.99;98798.70;422696;1291;97865;-41
2022/10/16 04:46:12;;;;;;;16.70;11.80;;;;;;;13.30;77.94;98796.77;422574;1295;110228;-41
2022/10/16 04:56:20;;;;;;;22.80;13.20;;;;;;;13.25;77.87;98793.23;422925;1293;108631;-41
2022/10/16 05:06:27;;;;;;;22.10;13.10;;;;;;;13.13;77.94;98783.95;422640;1288;97506;-41
2022/10/16 05:16:35;;;;;;;21.10;14.10;;;;;;;13.04;77.86;98794.46;422657;1295;108424;-41
2022/10/16 05:26:42;;;;;;;21.20;12.50;;;;;;;12.97;77.99;98805.00;422173;1288;97499;-39
2022/10/16 05:36:49;;;;;;;15.30;11.40;;;;;;;13.02;78.22;98815.09;422992;1295;111667;-40
2022/10/16 05:46:57;;;;;;;20.10;11.80;;;;;;;13.22;78.40;98822.42;422698;1295;107583;-40
2022/10/16 06:17:17;;;;;;;13.70;10.10;;;;;;;13.86;77.99;98860.31;422777;1295;108510;-39
2022/10/16 06:27:24;;;;;;;17.10;11.60;;;;;;;14.12;77.81;98861.41;422565;1295;97887;-41
2022/10/16 06:37:32;;;;;;;18.30;11.90;;;;;;;14.36;77.57;98867.61;422414;1298;109656;-40
2022/10/16 06:47:39;;;;;;;21.60;12.90;;;;;;;14.55;77.36;98867.75;422735;1288;106930;-40
2022/10/16 07:07:55;;;;;;;18.70;11.00;;;;;;;15.14;76.67;98904.41;422581;1288;108731;-39
2022/10/16 07:18:03;;;;;;;20.20;11.10;;;;;;;15.40;76.27;98907.98;422609;1292;108494;-40
2022/10/16 07:28:10;;;;;;;15.20;11.80;;;;;;;15.71;76.02;98915.23;423106;1294;98616;-40
2022/10/16 07:38:18;;;;;;;18.70;12.90;;;;;;;16.01;75.43;98922.85;422873;1295;110605;-40
2022/10/16 07:48:28;;;;;;;17.40;13.00;;;;;;;16.38;75.13;98922.30;422840;1285;108382;-40
2022/10/16 08:08:43;;;;;;;16.30;13.40;;;;;;;17.07;74.18;98937.10;422767;1295;110112;-41
2022/10/16 08:18:51;;;;;;;19.10;13.90;;;;;;;17.27;73.85;98940.70;422416;1295;109433;-40
2022/10/16 08:28:58;;;;;;;17.80;12.50;;;;;;;17.95;73.52;98941.47;422531;1293;400170;-40
2022/10/16 08:39:05;;;;;;;19.70;12.00;;;;;;;18.83;72.77;98949.27;423062;1294;97863;-40
2022/10/16 08:59:21;;;;;;;14.90;11.30;;;;;;;19.17;71.01;98966.92;422814;1285;107130;-39
2022/10/16 09:09:40;;;;;;;11.20;9.70;;;;;;;19.51;70.20;98966.44;422880;1292;96702;-40
2022/10/16 09:19:49;;;;;;;16.50;11.40;;;;;;;19.04;69.79;98978.96;422791;1295;98057;-41
2022/10/16 09:40:05;;;;;;;14.30;9.40;;;;;;;18.45;70.09;98989.87;422610;1295;107927;-40
2022/10/16 09:50:20;;;;;;;14.00;9.90;;;;;;;18.70;70.43;98998.60;422773;1293;97877;-39
2022/10/16 10:00:27;;;;;;;14.70;10.80;;;;;;;19.35;70.57;98990.20;422639;1290;110355;-40
2022/10/16 10:10:41;;;;;;;14.20;10.90;;;;;;;20.15;69.41;98990.66;422164;1296;107262;-39
2022/10/16 10:20:58;;;;;;;13.60;11.30;;;;;;;20.34;68.21;98996.39;422488;1292;97873;-40
2022/10/16 10:31:03;;;;;;;20.10;11.00;;;;;;;20.70;67.38;98984.56;422276;1292;97906;-42
2022/10/16 10:41:25;;;;;;;11.60;9.10;;;;;;;20.83;66.83;98977.05;422726;1286;108056;-40
2022/10/16 10:51:36;;;;;;;16.40;10.50;;;;;;;20.71;66.61;98987.19;422603;1294;96656;-39
2022/10/16 11:01:49;;;;;;;15.90;9.40;;;;;;;20.85;66.51;98985.04;422270;1295;97861;-39
2022/10/16 11:12:01;;;;;;;13.40;10.20;;;;;;;20.79;66.28;99001.44;422594;1299;108615;-39
2022/10/16 11:22:07;;;;;;;12.30;11.00;;;;;;;20.66;64.99;99005.52;422469;1290;109496;-40
2022/10/16 11:42:21;;;;;;;15.90;10.40;;;;;;;20.54;65.08;98990.66;422719;1291;110337;-40
2022/10/16 12:02:37;;;;;;;15.10;9.70;;;;;;;20.22;64.84;99002.25;422011;1292;97941;-41
2022/10/16 12:12:46;;;;;;;12.50;10.30;;;;;;;20.13;64.97;99011.41;422564;1295;110670;-40
2022/10/16 12:22:56;;;;;;;17.10;11.10;;;;;;;19.92;64.72;99008.74;422434;1292;107601;-41
2022/10/16 12:33:01;;;;;;;16.50;12.10;;;;;;;19.80;64.71;99007.49;422301;1289;98431;-41
2022/10/16 12:43:27;;;;;;;13.80;11.50;;;;;;;19.71;64.58;99012.63;422564;1299;97895;-40
2022/10/16 12:53:35;;;;;;;13.40;10.20;;;;;;;19.81;64.60;99016.83;422399;1292;108137;-40
2022/10/16 13:04:01;;;;;;;14.80;11.10;;;;;;;19.72;64.61;99021.30;422411;1286;97873;-40
2022/10/16 13:14:20;;;;;;;20.40;13.10;;;;;;;19.47;64.82;99020.16;422407;1295;110496;-42
2022/10/16 13:24:31;;;;;;;14.10;11.30;;;;;;;19.47;65.28;99018.08;423643;1278;107994;-40
2022/10/16 13:34:44;;;;;;;13.40;11.10;;;;;;;19.49;65.18;99015.86;421878;1289;97514;-41
2022/10/16 13:44:53;;;;;;;13.50;10.40;;;;;;;19.53;65.25;99016.96;422015;1292;97867;-39
2022/10/16 13:55:01;;;;;;;17.80;11.50;;;;;;;19.74;65.23;99022.90;421995;1287;110016;-40
2022/10/16 14:05:13;;;;;;;14.80;10.90;;;;;;;19.53;65.09;99040.04;422686;1286;108251;-41
2022/10/16 14:15:20;;;;;;;16.90;10.10;;;;;;;19.37;65.21;99060.48;422522;1288;97887;-40
2022/10/16 14:25:28;;;;;;;13.80;10.90;;;;;;;19.47;65.58;99055.89;422433;1283;109853;-40
2022/10/16 14:35:36;;;;;;;15.80;12.10;;;;;;;19.68;65.74;99060.55;422012;1283;108542;-41
2022/10/16 14:45:43;;;;;;;13.60;11.20;;;;;;;19.69;65.53;99072.04;422253;1286;98048;-40
2022/10/16 15:05:37;;;;;;;16.50;12.70;;;;;;;19.14;65.05;99079.52;412002;1319;636526;-40
2022/10/16 15:46:11;;;;;;;19.10;11.90;;;;;;;17.94;66.59;99111.27;421708;1281;95071;-40
2022/10/16 15:56:18;;;;;;;20.60;15.20;;;;;;;17.65;66.88;99117.71;421598;1303;107759;-40
2022/10/16 16:06:26;;;;;;;16.00;13.90;;;;;;;17.36;67.52;99133.55;422109;1304;107980;-41
2022/10/16 16:16:36;;;;;;;18.60;13.40;;;;;;;17.24;67.81;99138.72;421858;1288;107972;-39
2022/10/16 16:36:50;;;;;;;35.90;22.70;;;;;;;17.04;68.49;99152.89;422239;1297;107081;-41
2022/10/16 16:46:57;;;;;;;26.20;20.20;;;;;;;16.83;68.76;99173.92;421706;1296;108656;-41
2022/10/16 16:57:05;;;;;;;33.40;21.10;;;;;;;16.62;68.98;99196.65;421820;1289;108895;-40
2022/10/16 17:17:19;;;;;;;35.70;24.90;;;;;;;16.32;69.54;99221.52;422029;1299;108673;-39
2022/10/16 17:27:26;;;;;;;31.10;22.00;;;;;;;16.08;69.97;99228.64;422339;1295;108280;-39
2022/10/16 17:37:33;;;;;;;31.30;22.70;;;;;;;15.91;70.09;99239.30;421958;1296;96824;-40
2022/10/16 17:57:47;;;;;;;33.00;24.80;;;;;;;15.76;70.78;99253.83;421898;1295;111505;-41
2022/10/16 18:07:54;;;;;;;32.90;23.80;;;;;;;15.59;71.01;99262.99;421915;1304;96383;-40
2022/10/16 18:18:01;;;;;;;34.60;19.70;;;;;;;15.43;71.15;99270.63;421279;1299;108456;-41
2022/10/16 18:28:07;;;;;;;34.50;22.80;;;;;;;15.30;71.36;99282.55;421531;1288;108628;-39
2022/10/16 18:38:12;;;;;;;33.70;23.30;;;;;;;15.28;71.84;99298.77;421091;1296;96191;-41
2022/10/16 18:48:19;;;;;;;38.50;22.60;;;;;;;15.28;71.97;99305.11;421621;1295;107891;-40
2022/10/16 18:58:27;;;;;;;41.40;25.00;;;;;;;15.23;72.29;99318.27;421757;1297;96136;-40
2022/10/16 19:08:37;;;;;;;34.00;24.00;;;;;;;15.12;72.36;99322.56;421792;1298;96169;-40
2022/10/16 19:18:44;;;;;;;33.30;20.20;;;;;;;15.05;72.44;99341.24;421849;1289;108597;-40
2022/10/16 19:39:01;;;;;;;26.80;19.00;;;;;;;15.15;72.98;99364.43;421959;1295;95528;-40
2022/10/16 19:49:10;;;;;;;29.00;22.30;;;;;;;15.22;73.22;99374.83;421965;1297;107294;-40
2022/10/16 19:59:19;;;;;;;31.70;22.10;;;;;;;15.21;73.11;99381.37;421808;1288;107603;-40
2022/10/16 20:09:26;;;;;;;30.20;19.00;;;;;;;15.21;72.97;99385.68;422145;1289;96124;-40
2022/10/16 20:29:39;;;;;;;30.60;20.50;;;;;;;15.20;73.37;99398.92;422045;1299;96195;-40
2022/10/16 20:39:47;;;;;;;30.60;20.90;;;;;;;15.09;73.31;99416.10;421836;1297;95441;-39
2022/10/16 20:49:54;;;;;;;24.40;18.60;;;;;;;15.01;73.27;99431.68;421755;1292;110224;-40
2022/10/16 21:00:01;;;;;;;25.30;19.10;;;;;;;14.98;73.37;99436.52;421787;1288;107435;-40
2022/10/16 21:10:08;;;;;;;24.70;18.90;;;;;;;14.96;73.49;99448.58;421949;1289;95404;-40
2022/10/16 21:20:16;;;;;;;30.10;20.90;;;;;;;14.90;73.62;99446.86;422021;1297;108725;-40
2022/10/16 21:30:23;;;;;;;32.40;21.40;;;;;;;14.74;73.73;99456.83;421905;1297;107507;-40
2022/10/16 21:40:30;;;;;;;32.70;20.10;;;;;;;14.64;73.86;99461.14;422108;1288;96138;-40
2022/10/16 21:50:37;;;;;;;30.00;18.50;;;;;;;14.62;73.90;99477.83;421929;1299;108485;-40
2022/10/16 22:00:44;;;;;;;26.80;17.40;;;;;;;14.58;74.08;99489.19;421747;1296;109419;-40
2022/10/16 22:10:51;;;;;;;33.90;21.80;;;;;;;14.48;74.18;99491.01;421839;1299;96240;-42
2022/10/16 22:31:05;;;;;;;27.80;19.30;;;;;;;14.29;74.62;99488.77;421975;1287;108371;-40
2022/10/16 22:41:14;;;;;;;35.00;17.50;;;;;;;14.29;74.70;99491.63;422115;1287;96168;-41
2022/10/16 22:51:22;;;;;;;31.40;16.40;;;;;;;14.29;74.94;99499.94;421803;1288;108011;-40
2022/10/16 23:01:31;;;;;;;27.60;19.00;;;;;;;14.24;74.85;99508.02;421928;1299;108397;-40
2022/10/16 23:11:39;;;;;;;25.80;19.50;;;;;;;14.14;75.03;99507.89;422043;1299;96834;-40
2022/10/16 23:21:46;;;;;;;24.10;16.50;;;;;;;14.10;74.94;99524.39;422010;1295;96179;-41
2022/10/16 23:31:55;;;;;;;26.40;17.30;;;;;;;14.10;75.07;99527.43;421939;1299;108355;-41
2022/10/16 23:42:00;;;;;;;;;;;;;;;14.10;75.11;99541.67;422060;1299;96534;-41
2022/10/16 23:52:06;;;;;;;27.80;17.30;;;;;;;14.06;75.31;99547.27;422275;1302;109264;-41
